sensor_id;sensor_type;location;lat;lon;timestamp;pressure;altitude;pressure_sealevel;temperature;humidity
34925;BME280;21130;51.728;8.748;2023-01-28T00:00:04;101589.97;;;-0.19;100.00
34925;BME280;21130;51.728;8.748;2023-01-28T00:02:32;101593.41;;;-0.17;100.00
34925;BME280;21130;51.728;8.748;2023-01-28T00:05:00;101605.91;;;-0.15;100.00
34925;BME280;21130;51.728;8.748;2023-01-28T00:07:26;101597.84;;;-0.16;100.00
34925;BME280;21130;51.728;8.748;2023-01-28T00:09:54;101611.47;;;-0.16;100.00
34925;BME280;21130;51.728;8.748;2023-01-28T00:12:21;101606.63;;;-0.23;100.00
34925;BME280;21130;51.728;8.748;2023-01-28T00:14:47;101605.00;;;-0.15;100.00
34925;BME280;21130;51.728;8.748;2023-01-28T00:17:14;101612.09;;;-0.23;100.00
34925;BME280;21130;51.728;8.748;2023-01-28T00:19:40;101601.19;;;-0.23;100.00
34925;BME280;21130;51.728;8.748;2023-01-28T00:22:07;101608.03;;;-0.18;100.00
34925;BME280;21130;51.728;8.748;2023-01-28T00:24:33;101605.03;;;-0.25;100.00
34925;BME280;21130;51.728;8.748;2023-01-28T00:27:01;101605.19;;;-0.27;100.00
34925;BME280;21130;51.728;8.748;2023-01-28T00:29:27;101609.81;;;-0.37;100.00
34925;BME280;21130;51.728;8.748;2023-01-28T00:31:54;101610.66;;;-0.27;100.00
34925;BME280;21130;51.728;8.748;2023-01-28T00:34:20;101613.50;;;-0.28;100.00
34925;BME280;21130;51.728;8.748;2023-01-28T00:36:47;101609.94;;;-0.29;100.00
34925;BME280;21130;51.728;8.748;2023-01-28T00:39:22;101608.78;;;-0.26;100.00
34925;BME280;21130;51.728;8.748;2023-01-28T00:41:48;101609.63;;;-0.26;100.00
34925;BME280;21130;51.728;8.748;2023-01-28T00:44:16;101611.06;;;-0.22;100.00
34925;BME280;21130;51.728;8.748;2023-01-28T00:46:43;101610.34;;;-0.24;100.00
34925;BME280;21130;51.728;8.748;2023-01-28T00:49:09;101611.81;;;-0.29;100.00
34925;BME280;21130;51.728;8.748;2023-01-28T00:51:36;101607.50;;;-0.22;100.00
34925;BME280;21130;51.728;8.748;2023-01-28T00:54:03;101602.19;;;-0.33;100.00
34925;BME280;21130;51.728;8.748;2023-01-28T00:56:30;101610.66;;;-0.27;100.00
34925;BME280;21130;51.728;8.748;2023-01-28T00:58:56;101617.41;;;-0.31;100.00
34925;BME280;21130;51.728;8.748;2023-01-28T01:01:25;101607.38;;;-0.40;100.00
34925;BME280;21130;51.728;8.748;2023-01-28T01:03:53;101616.13;;;-0.36;100.00
34925;BME280;21130;51.728;8.748;2023-01-28T01:06:28;101610.94;;;-0.30;100.00
34925;BME280;21130;51.728;8.748;2023-01-28T01:08:54;101609.22;;;-0.40;100.00
34925;BME280;21130;51.728;8.748;2023-01-28T01:11:21;101614.25;;;-0.36;100.00
34925;BME280;21130;51.728;8.748;2023-01-28T01:13:50;101619.28;;;-0.41;100.00
34925;BME280;21130;51.728;8.748;2023-01-28T01:16:16;101615.28;;;-0.47;100.00
34925;BME280;21130;51.728;8.748;2023-01-28T01:18:44;101616.25;;;-0.38;100.00
34925;BME280;21130;51.728;8.748;2023-01-28T01:21:12;101605.94;;;-0.44;100.00
34925;BME280;21130;51.728;8.748;2023-01-28T01:23:39;101612.69;;;-0.48;100.00
34925;BME280;21130;51.728;8.748;2023-01-28T01:26:07;101614.97;;;-0.34;100.00
34925;BME280;21130;51.728;8.748;2023-01-28T01:28:33;101604.06;;;-0.44;100.00
34925;BME280;21130;51.728;8.748;2023-01-28T01:31:00;101610.97;;;-0.39;100.00
34925;BME280;21130;51.728;8.748;2023-01-28T01:33:27;101614.69;;;-0.50;100.00
34925;BME280;21130;51.728;8.748;2023-01-28T01:35:56;101611.97;;;-0.50;100.00
34925;BME280;21130;51.728;8.748;2023-01-28T01:38:22;101606.09;;;-0.55;100.00
34925;BME280;21130;51.728;8.748;2023-01-28T01:40:49;101606.38;;;-0.58;100.00
34925;BME280;21130;51.728;8.748;2023-01-28T01:43:16;101613.13;;;-0.53;100.00
34925;BME280;21130;51.728;8.748;2023-01-28T01:45:46;101610.38;;;-0.53;100.00
34925;BME280;21130;51.728;8.748;2023-01-28T01:48:17;101604.38;;;-0.56;100.00
34925;BME280;21130;51.728;8.748;2023-01-28T01:50:48;101611.28;;;-0.52;100.00
34925;BME280;21130;51.728;8.748;2023-01-28T01:53:19;101613.56;;;-0.57;100.00
34925;BME280;21130;51.728;8.748;2023-01-28T01:55:49;101611.84;;;-0.49;100.00
34925;BME280;21130;51.728;8.748;2023-01-28T01:58:18;101615.72;;;-0.51;100.00
34925;BME280;21130;51.728;8.748;2023-01-28T02:00:47;101622.31;;;-0.54;100.00
34925;BME280;21130;51.728;8.748;2023-01-28T02:03:15;101616.13;;;-0.56;100.00
34925;BME280;21130;51.728;8.748;2023-01-28T02:05:43;101614.44;;;-0.47;100.00
34925;BME280;21130;51.728;8.748;2023-01-28T02:08:09;101617.88;;;-0.45;100.00
34925;BME280;21130;51.728;8.748;2023-01-28T02:17:29;101616.88;;;-0.54;100.00
34925;BME280;21130;51.728;8.748;2023-01-28T02:19:58;101617.56;;;-0.42;100.00
34925;BME280;21130;51.728;8.748;2023-01-28T02:22:45;101624.47;;;-0.48;100.00
34925;BME280;21130;51.728;8.748;2023-01-28T02:25:41;101620.88;;;-0.48;100.00
34925;BME280;21130;51.728;8.748;2023-01-28T02:28:19;101628.31;;;-0.50;100.00
34925;BME280;21130;51.728;8.748;2023-01-28T02:30:51;101625.47;;;-0.49;100.00
34925;BME280;21130;51.728;8.748;2023-01-28T02:33:25;101625.88;;;-0.44;100.00
34925;BME280;21130;51.728;8.748;2023-01-28T02:35:54;101625.03;;;-0.44;100.00
34925;BME280;21130;51.728;8.748;2023-01-28T02:38:24;101626.31;;;-0.48;100.00
34925;BME280;21130;51.728;8.748;2023-01-28T02:40:59;101631.06;;;-0.50;100.00
34925;BME280;21130;51.728;8.748;2023-01-28T02:43:33;101630.78;;;-0.47;100.00
34925;BME280;21130;51.728;8.748;2023-01-28T02:46:03;101629.03;;;-0.48;100.00
34925;BME280;21130;51.728;8.748;2023-01-28T02:48:53;101626.31;;;-0.48;100.00
34925;BME280;21130;51.728;8.748;2023-01-28T02:51:31;101629.78;;;-0.46;100.00
34925;BME280;21130;51.728;8.748;2023-01-28T02:54:05;101625.03;;;-0.44;100.00
34925;BME280;21130;51.728;8.748;2023-01-28T02:56:39;101628.19;;;-0.49;100.00
34925;BME280;21130;51.728;8.748;2023-01-28T02:59:12;101630.19;;;-0.51;100.00
34925;BME280;21130;51.728;8.748;2023-01-28T03:02:07;101631.06;;;-0.50;100.00
34925;BME280;21130;51.728;8.748;2023-01-28T03:04:39;101638.53;;;-0.42;100.00
34925;BME280;21130;51.728;8.748;2023-01-28T03:07:08;101630.06;;;-0.49;100.00
34925;BME280;21130;51.728;8.748;2023-01-28T03:09:38;101628.31;;;-0.50;100.00
34925;BME280;21130;51.728;8.748;2023-01-28T03:12:10;101630.78;;;-0.47;100.00
34925;BME280;21130;51.728;8.748;2023-01-28T03:14:58;101635.38;;;-0.57;100.00
34925;BME280;21130;51.728;8.748;2023-01-28T03:17:48;101629.22;;;-0.50;100.00
34925;BME280;21130;51.728;8.748;2023-01-28T03:20:39;101628.50;;;-0.52;100.00
34925;BME280;21130;51.728;8.748;2023-01-28T03:23:28;101625.91;;;-0.53;100.00
34925;BME280;21130;51.728;8.748;2023-01-28T03:26:14;101625.47;;;-0.58;100.00
34925;BME280;21130;51.728;8.748;2023-01-28T03:29:03;101628.78;;;-0.64;100.00
34925;BME280;21130;51.728;8.748;2023-01-28T03:31:50;101628.50;;;-0.61;100.00
34925;BME280;21130;51.728;8.748;2023-01-28T03:34:35;101633.53;;;-0.67;100.00
34925;BME280;21130;51.728;8.748;2023-01-28T03:37:19;101627.63;;;-0.72;100.00
34925;BME280;21130;51.728;8.748;2023-01-28T03:39:45;101631.09;;;-0.70;100.00
34925;BME280;21130;51.728;8.748;2023-01-28T03:42:13;101640.00;;;-0.68;100.00
34925;BME280;21130;51.728;8.748;2023-01-28T03:44:42;101639.41;;;-0.61;100.00
34925;BME280;21130;51.728;8.748;2023-01-28T03:47:16;101634.81;;;-0.61;100.00
34925;BME280;21130;51.728;8.748;2023-01-28T03:49:44;101638.25;;;-0.59;100.00
34925;BME280;21130;51.728;8.748;2023-01-28T03:52:13;101634.66;;;-0.59;100.00
34925;BME280;21130;51.728;8.748;2023-01-28T03:54:40;101636.53;;;-0.70;100.00
34925;BME280;21130;51.728;8.748;2023-01-28T03:57:07;101630.94;;;-0.68;100.00
34925;BME280;21130;51.728;8.748;2023-01-28T03:59:33;101622.91;;;-0.70;100.00
34925;BME280;21130;51.728;8.748;2023-01-28T04:02:00;101632.78;;;-0.69;100.00
34925;BME280;21130;51.728;8.748;2023-01-28T04:04:28;101628.78;;;-0.74;100.00
34925;BME280;21130;51.728;8.748;2023-01-28T04:06:57;101629.09;;;-0.77;100.00
34925;BME280;21130;51.728;8.748;2023-01-28T04:09:23;101639.09;;;-0.78;100.00
34925;BME280;21130;51.728;8.748;2023-01-28T04:11:50;101629.50;;;-0.82;100.00
34925;BME280;21130;51.728;8.748;2023-01-28T04:14:17;101633.22;;;-0.83;100.00
34925;BME280;21130;51.728;8.748;2023-01-28T04:16:44;101634.81;;;-0.71;100.00
34925;BME280;21130;51.728;8.748;2023-01-28T04:19:11;101646.59;;;-0.80;100.00
34925;BME280;21130;51.728;8.748;2023-01-28T04:21:40;101644.84;;;-0.81;100.00
34925;BME280;21130;51.728;8.748;2023-01-28T04:24:06;101649.13;;;-0.88;100.00
34925;BME280;21130;51.728;8.748;2023-01-28T04:26:33;101648.16;;;-0.87;100.00
34925;BME280;21130;51.728;8.748;2023-01-28T04:28:59;101649.31;;;-0.90;100.00
34925;BME280;21130;51.728;8.748;2023-01-28T04:31:26;101653.16;;;-0.92;100.00
34925;BME280;21130;51.728;8.748;2023-01-28T04:33:52;101649.72;;;-0.94;100.00
34925;BME280;21130;51.728;8.748;2023-01-28T04:36:19;101652.44;;;-0.94;100.00
34925;BME280;21130;51.728;8.748;2023-01-28T04:38:46;101655.16;;;-0.94;100.00
34925;BME280;21130;51.728;8.748;2023-01-28T04:41:13;101652.44;;;-0.94;100.00
34925;BME280;21130;51.728;8.748;2023-01-28T04:43:40;101656.88;;;-0.93;100.00
34925;BME280;21130;51.728;8.748;2023-01-28T04:46:06;101663.06;;;-0.91;100.00
34925;BME280;21130;51.728;8.748;2023-01-28T04:48:33;101669.53;;;-0.92;100.00
34925;BME280;21130;51.728;8.748;2023-01-28T04:51:00;101661.47;;;-0.94;100.00
34925;BME280;21130;51.728;8.748;2023-01-28T04:53:27;101664.50;;;-0.97;100.00
34925;BME280;21130;51.728;8.748;2023-01-28T04:55:55;101663.91;;;-0.91;100.00
34925;BME280;21130;51.728;8.748;2023-01-28T04:58:22;101670.69;;;-0.85;100.00
34925;BME280;21130;51.728;8.748;2023-01-28T05:00:53;101671.97;;;-0.89;100.00
34925;BME280;21130;51.728;8.748;2023-01-28T05:03:19;101656.63;;;-0.90;100.00
34925;BME280;21130;51.728;8.748;2023-01-28T05:05:45;101665.06;;;-0.93;100.00
34925;BME280;21130;51.728;8.748;2023-01-28T05:08:12;101662.34;;;-0.83;100.00
34925;BME280;21130;51.728;8.748;2023-01-28T05:10:38;101664.50;;;-0.87;100.00
34925;BME280;21130;51.728;8.748;2023-01-28T05:13:06;101665.50;;;-0.78;100.00
34925;BME280;21130;51.728;8.748;2023-01-28T05:15:33;101670.81;;;-0.87;100.00
34925;BME280;21130;51.728;8.748;2023-01-28T05:17:59;101670.53;;;-0.74;100.00
34925;BME280;21130;51.728;8.748;2023-01-28T05:20:26;101666.53;;;-0.79;100.00
34925;BME280;21130;51.728;8.748;2023-01-28T05:22:53;101669.66;;;-0.84;100.00
34925;BME280;21130;51.728;8.748;2023-01-28T05:25:19;101670.69;;;-0.85;100.00
34925;BME280;21130;51.728;8.748;2023-01-28T05:27:49;101680.00;;;-0.88;100.00
34925;BME280;21130;51.728;8.748;2023-01-28T05:30:17;101674.38;;;-0.86;100.00
34925;BME280;21130;51.728;8.748;2023-01-28T05:32:44;101673.41;;;-0.85;100.00
34925;BME280;21130;51.728;8.748;2023-01-28T05:35:10;101676.25;;;-0.87;100.00
34925;BME280;21130;51.728;8.748;2023-01-28T05:37:39;101671.81;;;-0.97;100.00
34925;BME280;21130;51.728;8.748;2023-01-28T05:40:07;101673.22;;;-0.93;100.00
34925;BME280;21130;51.728;8.748;2023-01-28T05:42:33;101678.53;;;-1.01;100.00
34925;BME280;21130;51.728;8.748;2023-01-28T05:45:00;101678.41;;;-0.90;100.00
34925;BME280;21130;51.728;8.748;2023-01-28T05:47:27;101682.13;;;-0.91;100.00
34925;BME280;21130;51.728;8.748;2023-01-28T05:49:54;101678.56;;;-0.92;100.00
34925;BME280;21130;51.728;8.748;2023-01-28T05:52:20;101685.56;;;-0.99;100.00
34925;BME280;21130;51.728;8.748;2023-01-28T05:54:47;101675.53;;;-0.98;100.00
34925;BME280;21130;51.728;8.748;2023-01-28T05:57:13;101680.25;;;-0.91;100.00
34925;BME280;21130;51.728;8.748;2023-01-28T05:59:39;101684.72;;;-0.90;100.00
34925;BME280;21130;51.728;8.748;2023-01-28T06:02:06;101682.56;;;-0.96;100.00
34925;BME280;21130;51.728;8.748;2023-01-28T06:04:33;101685.84;;;-1.02;100.00
34925;BME280;21130;51.728;8.748;2023-01-28T06:07:00;101685.97;;;-1.03;100.00
34925;BME280;21130;51.728;8.748;2023-01-28T06:09:26;101682.09;;;-1.11;100.00
34925;BME280;21130;51.728;8.748;2023-01-28T06:11:53;101682.09;;;-1.11;100.00
34925;BME280;21130;51.728;8.748;2023-01-28T06:14:19;101683.53;;;-1.06;100.00
34925;BME280;21130;51.728;8.748;2023-01-28T06:16:45;101689.31;;;-1.00;100.00
34925;BME280;21130;51.728;8.748;2023-01-28T06:19:12;101692.72;;;-1.07;100.00
34925;BME280;21130;51.728;8.748;2023-01-28T06:21:40;101686.25;;;-1.06;100.00
34925;BME280;21130;51.728;8.748;2023-01-28T06:24:07;101691.84;;;-1.08;100.00
34925;BME280;21130;51.728;8.748;2023-01-28T06:26:34;101690.41;;;-1.12;100.00
34925;BME280;21130;51.728;8.748;2023-01-28T06:29:00;101685.25;;;-1.15;100.00
34925;BME280;21130;51.728;8.748;2023-01-28T06:31:27;101686.97;;;-1.14;100.00
34925;BME280;21130;51.728;8.748;2023-01-28T06:33:53;101697.88;;;-1.14;100.00
34925;BME280;21130;51.728;8.748;2023-01-28T06:36:20;101708.19;;;-1.18;100.00
34925;BME280;21130;51.728;8.748;2023-01-28T06:38:48;101704.16;;;-1.14;100.00
34925;BME280;21130;51.728;8.748;2023-01-28T06:41:14;101694.84;;;-1.11;100.00
34925;BME280;21130;51.728;8.748;2023-01-28T06:43:40;101691.56;;;-1.15;100.00
34925;BME280;21130;51.728;8.748;2023-01-28T06:46:07;101692.53;;;-1.16;100.00
34925;BME280;21130;51.728;8.748;2023-01-28T06:48:33;101694.41;;;-1.16;100.00
34925;BME280;21130;51.728;8.748;2023-01-28T06:50:59;101690.97;;;-1.18;100.00
34925;BME280;21130;51.728;8.748;2023-01-28T06:53:26;101689.41;;;-1.11;100.00
34925;BME280;21130;51.728;8.748;2023-01-28T06:55:54;101690.53;;;-1.14;100.00
34925;BME280;21130;51.728;8.748;2023-01-28T06:58:20;101695.88;;;-1.12;100.00
34925;BME280;21130;51.728;8.748;2023-01-28T07:00:47;101680.66;;;-1.15;100.00
34925;BME280;21130;51.728;8.748;2023-01-28T07:03:14;101680.50;;;-1.13;100.00
34925;BME280;21130;51.728;8.748;2023-01-28T07:05:41;101679.38;;;-1.20;100.00
34925;BME280;21130;51.728;8.748;2023-01-28T07:08:07;101685.81;;;-1.12;100.00
34925;BME280;21130;51.728;8.748;2023-01-28T07:10:33;101691.97;;;-1.19;100.00
34925;BME280;21130;51.728;8.748;2023-01-28T07:13:02;101693.97;;;-1.21;100.00
34925;BME280;21130;51.728;8.748;2023-01-28T07:15:28;101684.97;;;-1.12;100.00
34925;BME280;21130;51.728;8.748;2023-01-28T07:17:55;101681.81;;;-1.17;100.00
34925;BME280;21130;51.728;8.748;2023-01-28T07:20:21;101685.50;;;-1.18;100.00
34925;BME280;21130;51.728;8.748;2023-01-28T07:22:48;101686.41;;;-1.18;100.00
34925;BME280;21130;51.728;8.748;2023-01-28T07:25:15;101690.25;;;-1.11;100.00
34925;BME280;21130;51.728;8.748;2023-01-28T07:27:46;101691.72;;;-1.06;100.00
34925;BME280;21130;51.728;8.748;2023-01-28T07:30:15;101703.03;;;-1.11;100.00
34925;BME280;21130;51.728;8.748;2023-01-28T07:32:41;101694.16;;;-1.03;100.00
34925;BME280;21130;51.728;8.748;2023-01-28T07:35:08;101690.25;;;-1.11;100.00
34925;BME280;21130;51.728;8.748;2023-01-28T07:37:35;101691.41;;;-1.13;100.00
34925;BME280;21130;51.728;8.748;2023-01-28T07:40:01;101692.97;;;-1.11;100.00
34925;BME280;21130;51.728;8.748;2023-01-28T07:42:28;101689.13;;;-1.08;100.00
34925;BME280;21130;51.728;8.748;2023-01-28T07:44:54;101689.00;;;-1.06;100.00
34925;BME280;21130;51.728;8.748;2023-01-28T07:47:22;101690.25;;;-1.11;100.00
34925;BME280;21130;51.728;8.748;2023-01-28T07:49:48;101691.28;;;-1.12;100.00
34925;BME280;21130;51.728;8.748;2023-01-28T07:52:14;101698.19;;;-1.07;100.00
34925;BME280;21130;51.728;8.748;2023-01-28T07:54:41;101692.84;;;-1.09;100.00
34925;BME280;21130;51.728;8.748;2023-01-28T07:57:08;101697.28;;;-1.08;100.00
34925;BME280;21130;51.728;8.748;2023-01-28T07:59:35;101697.44;;;-1.10;100.00
34925;BME280;21130;51.728;8.748;2023-01-28T08:02:01;101700.63;;;-1.04;100.00
34925;BME280;21130;51.728;8.748;2023-01-28T08:04:29;101699.59;;;-1.03;100.00
34925;BME280;21130;51.728;8.748;2023-01-28T08:06:56;101702.50;;;-0.95;100.00
34925;BME280;21130;51.728;8.748;2023-01-28T08:09:22;101710.53;;;-0.94;100.00
34925;BME280;21130;51.728;8.748;2023-01-28T08:11:49;101712.84;;;-0.89;100.00
34925;BME280;21130;51.728;8.748;2023-01-28T08:14:15;101717.28;;;-0.88;100.00
34925;BME280;21130;51.728;8.748;2023-01-28T08:16:41;101723.28;;;-0.94;100.00
34925;BME280;21130;51.728;8.748;2023-01-28T08:19:08;101729.47;;;-0.92;100.00
34925;BME280;21130;51.728;8.748;2023-01-28T08:21:36;101725.72;;;-0.91;100.00
34925;BME280;21130;51.728;8.748;2023-01-28T08:24:04;101726.91;;;-0.84;100.00
34925;BME280;21130;51.728;8.748;2023-01-28T08:26:30;101732.78;;;-0.79;100.00
34925;BME280;21130;51.728;8.748;2023-01-28T08:28:56;101734.66;;;-0.79;100.00
34925;BME280;21130;51.728;8.748;2023-01-28T08:31:23;101734.50;;;-0.78;100.00
34925;BME280;21130;51.728;8.748;2023-01-28T08:33:49;101728.50;;;-0.72;100.00
34925;BME280;21130;51.728;8.748;2023-01-28T08:36:16;101736.69;;;-0.62;100.00
34925;BME280;21130;51.728;8.748;2023-01-28T08:38:43;101743.00;;;-0.61;100.00
34925;BME280;21130;51.728;8.748;2023-01-28T08:41:10;101754.22;;;-0.55;100.00
34925;BME280;21130;51.728;8.748;2023-01-28T08:43:37;101749.34;;;-0.51;100.00
34925;BME280;21130;51.728;8.748;2023-01-28T08:46:04;101747.31;;;-0.49;100.00
34925;BME280;21130;51.728;8.748;2023-01-28T08:48:30;101761.53;;;-0.46;100.00
34925;BME280;21130;51.728;8.748;2023-01-28T08:50:57;101761.25;;;-0.33;100.00
34925;BME280;21130;51.728;8.748;2023-01-28T08:53:24;101769.44;;;-0.33;100.00
34925;BME280;21130;51.728;8.748;2023-01-28T08:55:52;101766.28;;;-0.38;100.00
34925;BME280;21130;51.728;8.748;2023-01-28T08:58:19;101769.16;;;-0.30;100.00
34925;BME280;21130;51.728;8.748;2023-01-28T09:00:46;101770.31;;;-0.23;100.00
34925;BME280;21130;51.728;8.748;2023-01-28T09:03:13;101772.03;;;-0.22;100.00
34925;BME280;21130;51.728;8.748;2023-01-28T09:05:40;101767.72;;;-0.14;100.00
34925;BME280;21130;51.728;8.748;2023-01-28T09:08:08;101777.91;;;-0.16;100.00
34925;BME280;21130;51.728;8.748;2023-01-28T09:10:35;101778.22;;;-0.19;100.00
34925;BME280;21130;51.728;8.748;2023-01-28T09:13:07;101790.41;;;-0.14;100.00
34925;BME280;21130;51.728;8.748;2023-01-28T09:15:34;101796.00;;;-0.06;100.00
34925;BME280;21130;51.728;8.748;2023-01-28T09:18:02;101789.97;;;-0.19;100.00
34925;BME280;21130;51.728;8.748;2023-01-28T09:20:28;101802.19;;;-0.13;100.00
34925;BME280;21130;51.728;8.748;2023-01-28T09:22:54;101817.84;;;-0.06;100.00
34925;BME280;21130;51.728;8.748;2023-01-28T09:25:22;101811.22;;;-0.03;100.00
34925;BME280;21130;51.728;8.748;2023-01-28T09:27:48;101809.09;;;0.01;100.00
34925;BME280;21130;51.728;8.748;2023-01-28T09:30:17;101829.06;;;0.01;100.00
34925;BME280;21130;51.728;8.748;2023-01-28T09:32:43;101825.47;;;-0.09;100.00
34925;BME280;21130;51.728;8.748;2023-01-28T09:35:10;101817.28;;;-0.09;100.00
34925;BME280;21130;51.728;8.748;2023-01-28T09:37:36;101815.53;;;-0.10;100.00
34925;BME280;21130;51.728;8.748;2023-01-28T09:40:04;101819.16;;;0.00;100.00
34925;BME280;21130;51.728;8.748;2023-01-28T09:42:41;101824.44;;;-0.08;100.00
34925;BME280;21130;51.728;8.748;2023-01-28T09:45:16;101824.75;;;0.08;100.00
34925;BME280;21130;51.728;8.748;2023-01-28T09:47:49;101837.38;;;0.09;100.00
34925;BME280;21130;51.728;8.748;2023-01-28T09:50:21;101831.91;;;0.09;100.00
34925;BME280;21130;51.728;8.748;2023-01-28T09:52:51;101835.38;;;0.11;100.00
34925;BME280;21130;51.728;8.748;2023-01-28T09:55:24;101842.41;;;0.04;100.00
34925;BME280;21130;51.728;8.748;2023-01-28T09:57:55;101835.66;;;0.08;100.00
34925;BME280;21130;51.728;8.748;2023-01-28T10:00:28;101841.41;;;0.05;100.00
34925;BME280;21130;51.728;8.748;2023-01-28T10:03:15;101838.81;;;-0.16;100.00
34925;BME280;21130;51.728;8.748;2023-01-28T10:05:51;101848.13;;;-0.18;100.00
34925;BME280;21130;51.728;8.748;2023-01-28T10:08:27;101830.03;;;-0.39;100.00
34925;BME280;21130;51.728;8.748;2023-01-28T10:11:02;101824.66;;;-0.50;100.00
34925;BME280;21130;51.728;8.748;2023-01-28T10:13:39;101825.16;;;-0.45;100.00
34925;BME280;21130;51.728;8.748;2023-01-28T10:16:18;101834.03;;;-0.43;100.00
34925;BME280;21130;51.728;8.748;2023-01-28T10:18:52;101835.47;;;-0.39;100.00
34925;BME280;21130;51.728;8.748;2023-01-28T10:21:23;101831.59;;;-0.36;100.00
34925;BME280;21130;51.728;8.748;2023-01-28T10:23:57;101822.84;;;-0.40;100.00
34925;BME280;21130;51.728;8.748;2023-01-28T10:26:32;101838.19;;;-0.49;100.00
34925;BME280;21130;51.728;8.748;2023-01-28T10:29:03;101832.91;;;-0.31;100.00
34925;BME280;21130;51.728;8.748;2023-01-28T10:31:34;101815.25;;;-0.36;100.00
34925;BME280;21130;51.728;8.748;2023-01-28T10:34:03;101821.41;;;-0.34;100.00
34925;BME280;21130;51.728;8.748;2023-01-28T10:36:29;101818.09;;;-0.38;100.00
34925;BME280;21130;51.728;8.748;2023-01-28T10:38:56;101825.13;;;-0.35;100.00
34925;BME280;21130;51.728;8.748;2023-01-28T10:41:22;101821.13;;;-0.31;100.00
34925;BME280;21130;51.728;8.748;2023-01-28T10:43:51;101809.94;;;-0.28;100.00
34925;BME280;21130;51.728;8.748;2023-01-28T10:46:20;101798.75;;;-0.35;100.00
34925;BME280;21130;51.728;8.748;2023-01-28T10:48:54;101804.47;;;-0.38;100.00
34925;BME280;21130;51.728;8.748;2023-01-28T10:51:29;101809.38;;;-0.32;100.00
34925;BME280;21130;51.728;8.748;2023-01-28T10:53:56;101811.94;;;-0.30;100.00
34925;BME280;21130;51.728;8.748;2023-01-28T10:56:25;101822.16;;;-0.32;100.00
34925;BME280;21130;51.728;8.748;2023-01-28T10:58:58;101820.25;;;-0.41;100.00
34925;BME280;21130;51.728;8.748;2023-01-28T11:01:37;101812.50;;;-0.46;100.00
34925;BME280;21130;51.728;8.748;2023-01-28T11:04:14;101806.22;;;-0.27;100.00
34925;BME280;21130;51.728;8.748;2023-01-28T11:06:51;101813.97;;;-0.32;100.00
34925;BME280;21130;51.728;8.748;2023-01-28T11:09:22;101818.84;;;-0.26;100.00
34925;BME280;21130;51.728;8.748;2023-01-28T11:11:49;101815.56;;;-0.20;100.00
34925;BME280;21130;51.728;8.748;2023-01-28T11:14:23;101825.75;;;0.07;100.00
34925;BME280;21130;51.728;8.748;2023-01-28T11:16:52;101826.03;;;0.24;100.00
34925;BME280;21130;51.728;8.748;2023-01-28T11:19:26;101832.94;;;0.28;100.00
34925;BME280;21130;51.728;8.748;2023-01-28T11:21:55;101836.53;;;0.38;100.00
34925;BME280;21130;51.728;8.748;2023-01-28T11:24:25;101831.47;;;0.43;100.00
34925;BME280;21130;51.728;8.748;2023-01-28T11:26:54;101838.94;;;0.41;100.00
34925;BME280;21130;51.728;8.748;2023-01-28T11:29:25;101833.06;;;0.46;100.00
34925;BME280;21130;51.728;8.748;2023-01-28T11:31:52;101847.56;;;0.07;100.00
34925;BME280;21130;51.728;8.748;2023-01-28T11:34:24;101841.56;;;0.13;100.00
34925;BME280;21130;51.728;8.748;2023-01-28T11:36:53;101832.50;;;-0.07;100.00
34925;BME280;21130;51.728;8.748;2023-01-28T11:39:22;101831.47;;;-0.15;100.00
34925;BME280;21130;51.728;8.748;2023-01-28T11:41:50;101831.47;;;-0.06;100.00
34925;BME280;21130;51.728;8.748;2023-01-28T11:44:21;101832.81;;;0.00;100.00
34925;BME280;21130;51.728;8.748;2023-01-28T11:47:06;101825.19;;;0.13;100.00
34925;BME280;21130;51.728;8.748;2023-01-28T11:49:50;101827.78;;;0.05;100.00
34925;BME280;21130;51.728;8.748;2023-01-28T11:52:30;101822.88;;;-0.11;100.00
34925;BME280;21130;51.728;8.748;2023-01-28T11:55:10;101813.69;;;-0.19;100.00
34925;BME280;21130;51.728;8.748;2023-01-28T11:57:51;101817.84;;;-0.35;100.00
34925;BME280;21130;51.728;8.748;2023-01-28T12:00:36;101817.81;;;-0.25;100.00
34925;BME280;21130;51.728;8.748;2023-01-28T12:03:20;101810.78;;;-0.18;100.00
34925;BME280;21130;51.728;8.748;2023-01-28T12:05:51;101811.09;;;-0.11;100.00
34925;BME280;21130;51.728;8.748;2023-01-28T12:08:23;101803.03;;;-0.03;100.00
34925;BME280;21130;51.728;8.748;2023-01-28T12:11:08;101808.38;;;0.08;100.00
34925;BME280;21130;51.728;8.748;2023-01-28T12:13:47;101792.72;;;0.10;100.00
34925;BME280;21130;51.728;8.748;2023-01-28T12:16:33;101785.38;;;0.20;100.00
34925;BME280;21130;51.728;8.748;2023-01-28T12:19:17;101786.94;;;0.33;100.00
34925;BME280;21130;51.728;8.748;2023-01-28T12:22:01;101780.28;;;0.45;100.00
34925;BME280;21130;51.728;8.748;2023-01-28T12:24:42;101781.56;;;0.51;100.00
34925;BME280;21130;51.728;8.748;2023-01-28T12:27:24;101788.72;;;0.61;100.00
34925;BME280;21130;51.728;8.748;2023-01-28T12:30:00;101775.03;;;0.71;100.00
34925;BME280;21130;51.728;8.748;2023-01-28T12:32:41;101772.41;;;0.79;100.00
34925;BME280;21130;51.728;8.748;2023-01-28T12:35:44;101779.75;;;0.79;100.00
34925;BME280;21130;51.728;8.748;2023-01-28T12:38:27;101773.06;;;0.63;100.00
34925;BME280;21130;51.728;8.748;2023-01-28T12:41:04;101764.56;;;0.67;100.00
34925;BME280;21130;51.728;8.748;2023-01-28T12:43:42;101764.88;;;0.54;100.00
34925;BME280;21130;51.728;8.748;2023-01-28T12:46:17;101767.50;;;0.46;100.00
34925;BME280;21130;51.728;8.748;2023-01-28T12:48:50;101745.28;;;0.21;100.00
34925;BME280;21130;51.728;8.748;2023-01-28T12:51:21;101747.81;;;0.32;100.00
34925;BME280;21130;51.728;8.748;2023-01-28T12:53:54;101730.06;;;0.66;100.00
34925;BME280;21130;51.728;8.748;2023-01-28T12:56:26;101703.94;;;1.08;100.00
34925;BME280;21130;51.728;8.748;2023-01-28T12:58:57;101696.53;;;1.55;100.00
34925;BME280;21130;51.728;8.748;2023-01-28T13:01:30;101693.19;;;2.05;100.00